sensor_id;sensor_type;location;lat;lon;timestamp;temperature;humidity
65707;SHT31;52423;43.512;5.220;2023-07-29T00:00:51;22.31;81.55
65707;SHT31;52423;43.512;5.220;2023-07-29T00:03:16;22.22;81.81
65707;SHT31;52423;43.512;5.220;2023-07-29T00:05:42;22.21;81.43
65707;SHT31;52423;43.512;5.220;2023-07-29T00:08:07;22.22;81.39
65707;SHT31;52423;43.512;5.220;2023-07-29T00:10:36;22.18;81.77
65707;SHT31;52423;43.512;5.220;2023-07-29T00:13:02;22.21;81.02
65707;SHT31;52423;43.512;5.220;2023-07-29T00:15:28;22.22;80.93
65707;SHT31;52423;43.512;5.220;2023-07-29T00:17:53;22.28;80.46
65707;SHT31;52423;43.512;5.220;2023-07-29T00:20:18;22.25;80.25
65707;SHT31;52423;43.512;5.220;2023-07-29T00:22:44;22.25;80.44
65707;SHT31;52423;43.512;5.220;2023-07-29T00:25:09;22.28;80.60
65707;SHT31;52423;43.512;5.220;2023-07-29T00:27:35;22.27;80.29
65707;SHT31;52423;43.512;5.220;2023-07-29T00:30:00;22.22;80.32
65707;SHT31;52423;43.512;5.220;2023-07-29T00:32:29;22.25;80.29
65707;SHT31;52423;43.512;5.220;2023-07-29T00:34:54;22.17;80.25
65707;SHT31;52423;43.512;5.220;2023-07-29T00:37:20;22.18;80.27
65707;SHT31;52423;43.512;5.220;2023-07-29T00:39:45;22.22;80.35
65707;SHT31;52423;43.512;5.220;2023-07-29T00:42:10;22.21;80.11
65707;SHT31;52423;43.512;5.220;2023-07-29T00:44:36;22.22;80.46
65707;SHT31;52423;43.512;5.220;2023-07-29T00:47:03;22.15;80.68
65707;SHT31;52423;43.512;5.220;2023-07-29T00:49:30;22.20;80.73
65707;SHT31;52423;43.512;5.220;2023-07-29T00:51:55;22.18;80.35
65707;SHT31;52423;43.512;5.220;2023-07-29T00:54:22;22.18;80.28
65707;SHT31;52423;43.512;5.220;2023-07-29T00:56:47;22.15;80.41
65707;SHT31;52423;43.512;5.220;2023-07-29T00:59:13;22.11;80.52
65707;SHT31;52423;43.512;5.220;2023-07-29T01:01:38;22.13;80.29
65707;SHT31;52423;43.512;5.220;2023-07-29T01:04:04;22.11;80.50
65707;SHT31;52423;43.512;5.220;2023-07-29T01:09:27;22.10;80.52
65707;SHT31;52423;43.512;5.220;2023-07-29T01:12:20;22.13;80.27
65707;SHT31;52423;43.512;5.220;2023-07-29T01:17:48;22.05;80.28
65707;SHT31;52423;43.512;5.220;2023-07-29T01:20:16;22.13;80.30
65707;SHT31;52423;43.512;5.220;2023-07-29T01:22:42;22.08;80.24
65707;SHT31;52423;43.512;5.220;2023-07-29T01:25:08;22.11;79.96
65707;SHT31;52423;43.512;5.220;2023-07-29T01:27:33;22.05;80.29
65707;SHT31;52423;43.512;5.220;2023-07-29T01:30:00;22.10;79.79
65707;SHT31;52423;43.512;5.220;2023-07-29T01:32:58;22.07;80.28
65707;SHT31;52423;43.512;5.220;2023-07-29T01:38:05;22.01;80.21
65707;SHT31;52423;43.512;5.220;2023-07-29T01:40:32;22.03;80.45
65707;SHT31;52423;43.512;5.220;2023-07-29T01:42:58;21.98;80.08
65707;SHT31;52423;43.512;5.220;2023-07-29T01:45:24;21.96;80.11
65707;SHT31;52423;43.512;5.220;2023-07-29T01:47:53;21.93;80.32
65707;SHT31;52423;43.512;5.220;2023-07-29T01:50:18;21.90;80.16
65707;SHT31;52423;43.512;5.220;2023-07-29T01:52:44;21.90;80.18
65707;SHT31;52423;43.512;5.220;2023-07-29T01:55:09;21.94;80.17
65707;SHT31;52423;43.512;5.220;2023-07-29T01:57:34;21.93;80.04
65707;SHT31;52423;43.512;5.220;2023-07-29T02:00:00;21.90;80.30
65707;SHT31;52423;43.512;5.220;2023-07-29T02:02:25;21.89;80.10
65707;SHT31;52423;43.512;5.220;2023-07-29T02:04:51;21.84;80.00
65707;SHT31;52423;43.512;5.220;2023-07-29T02:07:18;21.84;80.02
65707;SHT31;52423;43.512;5.220;2023-07-29T02:09:44;21.86;80.00
65707;SHT31;52423;43.512;5.220;2023-07-29T02:12:10;21.80;80.37
65707;SHT31;52423;43.512;5.220;2023-07-29T02:14:35;21.82;80.09
65707;SHT31;52423;43.512;5.220;2023-07-29T02:17:00;21.82;80.00
65707;SHT31;52423;43.512;5.220;2023-07-29T02:19:26;21.77;80.20
65707;SHT31;52423;43.512;5.220;2023-07-29T02:21:51;21.79;79.90
65707;SHT31;52423;43.512;5.220;2023-07-29T02:24:17;21.76;79.97
65707;SHT31;52423;43.512;5.220;2023-07-29T02:26:42;21.73;79.96
65707;SHT31;52423;43.512;5.220;2023-07-29T02:29:07;21.76;79.84
65707;SHT31;52423;43.512;5.220;2023-07-29T02:31:33;21.69;79.96
65707;SHT31;52423;43.512;5.220;2023-07-29T02:34:00;21.64;79.67
65707;SHT31;52423;43.512;5.220;2023-07-29T02:36:25;21.69;80.05
65707;SHT31;52423;43.512;5.220;2023-07-29T02:38:50;21.63;79.34
65707;SHT31;52423;43.512;5.220;2023-07-29T02:41:16;21.64;79.09
65707;SHT31;52423;43.512;5.220;2023-07-29T02:43:48;21.60;79.47
65707;SHT31;52423;43.512;5.220;2023-07-29T02:46:14;21.63;79.28
65707;SHT31;52423;43.512;5.220;2023-07-29T02:48:40;21.57;79.33
65707;SHT31;52423;43.512;5.220;2023-07-29T02:51:05;21.56;79.20
65707;SHT31;52423;43.512;5.220;2023-07-29T02:53:30;21.55;79.19
65707;SHT31;52423;43.512;5.220;2023-07-29T02:55:56;21.52;79.15
65707;SHT31;52423;43.512;5.220;2023-07-29T02:58:21;21.55;78.98
65707;SHT31;52423;43.512;5.220;2023-07-29T03:00:47;21.52;78.90
65707;SHT31;52423;43.512;5.220;2023-07-29T03:03:14;21.45;79.24
65707;SHT31;52423;43.512;5.220;2023-07-29T03:05:39;21.49;78.50
65707;SHT31;52423;43.512;5.220;2023-07-29T03:08:05;21.49;78.62
65707;SHT31;52423;43.512;5.220;2023-07-29T03:10:30;21.46;78.46
65707;SHT31;52423;43.512;5.220;2023-07-29T03:12:56;21.47;78.59
65707;SHT31;52423;43.512;5.220;2023-07-29T03:15:25;21.39;78.68
65707;SHT31;52423;43.512;5.220;2023-07-29T03:17:51;21.39;78.77
65707;SHT31;52423;43.512;5.220;2023-07-29T03:20:16;21.28;79.01
65707;SHT31;52423;43.512;5.220;2023-07-29T03:22:45;21.26;78.90
65707;SHT31;52423;43.512;5.220;2023-07-29T03:25:11;21.29;78.94
65707;SHT31;52423;43.512;5.220;2023-07-29T03:27:37;21.28;79.10
65707;SHT31;52423;43.512;5.220;2023-07-29T03:30:03;21.25;79.10
65707;SHT31;52423;43.512;5.220;2023-07-29T03:32:29;21.25;79.05
65707;SHT31;52423;43.512;5.220;2023-07-29T03:34:54;21.19;79.17
65707;SHT31;52423;43.512;5.220;2023-07-29T03:37:20;21.16;78.99
65707;SHT31;52423;43.512;5.220;2023-07-29T03:39:46;21.18;78.88
65707;SHT31;52423;43.512;5.220;2023-07-29T03:42:12;21.19;79.17
65707;SHT31;52423;43.512;5.220;2023-07-29T03:44:38;21.15;78.95
65707;SHT31;52423;43.512;5.220;2023-07-29T03:47:05;21.11;79.30
65707;SHT31;52423;43.512;5.220;2023-07-29T03:49:31;21.12;79.19
65707;SHT31;52423;43.512;5.220;2023-07-29T03:51:56;21.12;78.99
65707;SHT31;52423;43.512;5.220;2023-07-29T03:54:21;21.16;78.89
65707;SHT31;52423;43.512;5.220;2023-07-29T03:56:47;21.06;79.01
65707;SHT31;52423;43.512;5.220;2023-07-29T03:59:12;21.05;79.19
65707;SHT31;52423;43.512;5.220;2023-07-29T04:01:37;21.09;79.21
65707;SHT31;52423;43.512;5.220;2023-07-29T04:04:03;21.14;78.76
65707;SHT31;52423;43.512;5.220;2023-07-29T04:06:29;21.15;79.39
65707;SHT31;52423;43.512;5.220;2023-07-29T04:08:54;21.24;78.44
65707;SHT31;52423;43.512;5.220;2023-07-29T04:11:20;21.22;78.80
65707;SHT31;52423;43.512;5.220;2023-07-29T04:13:46;21.08;78.04
65707;SHT31;52423;43.512;5.220;2023-07-29T04:16:11;21.05;78.37
65707;SHT31;52423;43.512;5.220;2023-07-29T04:18:36;21.08;78.10
65707;SHT31;52423;43.512;5.220;2023-07-29T04:21:02;21.15;78.15
65707;SHT31;52423;43.512;5.220;2023-07-29T04:23:27;21.09;77.81
65707;SHT31;52423;43.512;5.220;2023-07-29T04:25:52;21.09;77.72
65707;SHT31;52423;43.512;5.220;2023-07-29T04:28:18;21.01;77.80
65707;SHT31;52423;43.512;5.220;2023-07-29T04:30:44;21.06;77.74
65707;SHT31;52423;43.512;5.220;2023-07-29T04:33:09;21.14;77.81
65707;SHT31;52423;43.512;5.220;2023-07-29T04:35:34;21.08;77.22
65707;SHT31;52423;43.512;5.220;2023-07-29T04:38:00;21.12;76.93
65707;SHT31;52423;43.512;5.220;2023-07-29T04:40:25;21.08;76.99
65707;SHT31;52423;43.512;5.220;2023-07-29T04:42:51;21.08;77.01
65707;SHT31;52423;43.512;5.220;2023-07-29T04:45:16;21.12;77.52
65707;SHT31;52423;43.512;5.220;2023-07-29T04:47:42;21.14;76.82
65707;SHT31;52423;43.512;5.220;2023-07-29T04:50:08;21.04;76.66
65707;SHT31;52423;43.512;5.220;2023-07-29T04:52:33;21.05;76.46
65707;SHT31;52423;43.512;5.220;2023-07-29T04:54:58;21.06;76.71
65707;SHT31;52423;43.512;5.220;2023-07-29T04:57:24;21.04;76.50
65707;SHT31;52423;43.512;5.220;2023-07-29T04:59:49;21.08;76.95
65707;SHT31;52423;43.512;5.220;2023-07-29T05:02:15;21.16;76.44
65707;SHT31;52423;43.512;5.220;2023-07-29T05:04:40;21.22;76.51
65707;SHT31;52423;43.512;5.220;2023-07-29T05:07:06;21.24;76.40
65707;SHT31;52423;43.512;5.220;2023-07-29T05:09:31;21.28;76.33
65707;SHT31;52423;43.512;5.220;2023-07-29T05:11:56;21.28;76.75
65707;SHT31;52423;43.512;5.220;2023-07-29T05:14:22;21.26;76.07
65707;SHT31;52423;43.512;5.220;2023-07-29T05:16:47;21.32;75.77
65707;SHT31;52423;43.512;5.220;2023-07-29T05:19:13;21.35;75.97
65707;SHT31;52423;43.512;5.220;2023-07-29T05:21:38;21.39;76.18
65707;SHT31;52423;43.512;5.220;2023-07-29T05:24:04;21.45;76.44
65707;SHT31;52423;43.512;5.220;2023-07-29T05:26:30;21.45;76.27
65707;SHT31;52423;43.512;5.220;2023-07-29T05:28:55;21.49;76.03
65707;SHT31;52423;43.512;5.220;2023-07-29T05:31:21;21.57;76.13
65707;SHT31;52423;43.512;5.220;2023-07-29T05:33:47;21.66;76.37
65707;SHT31;52423;43.512;5.220;2023-07-29T05:36:12;21.72;76.06
65707;SHT31;52423;43.512;5.220;2023-07-29T05:38:38;21.64;76.12
65707;SHT31;52423;43.512;5.220;2023-07-29T05:41:03;21.66;76.35
65707;SHT31;52423;43.512;5.220;2023-07-29T05:43:29;21.69;76.50
65707;SHT31;52423;43.512;5.220;2023-07-29T05:45:54;21.74;76.05
65707;SHT31;52423;43.512;5.220;2023-07-29T05:48:20;21.82;75.59
65707;SHT31;52423;43.512;5.220;2023-07-29T05:50:45;22.05;74.67
65707;SHT31;52423;43.512;5.220;2023-07-29T05:53:11;22.05;74.20
65707;SHT31;52423;43.512;5.220;2023-07-29T05:55:36;22.14;74.66
65707;SHT31;52423;43.512;5.220;2023-07-29T05:58:02;22.15;73.92
65707;SHT31;52423;43.512;5.220;2023-07-29T06:00:27;22.37;73.36
65707;SHT31;52423;43.512;5.220;2023-07-29T06:02:53;22.40;73.97
65707;SHT31;52423;43.512;5.220;2023-07-29T06:05:18;22.42;73.99
65707;SHT31;52423;43.512;5.220;2023-07-29T06:07:43;22.44;74.33
65707;SHT31;52423;43.512;5.220;2023-07-29T06:10:14;22.49;74.43
65707;SHT31;52423;43.512;5.220;2023-07-29T06:12:43;22.58;73.33
65707;SHT31;52423;43.512;5.220;2023-07-29T06:15:08;22.62;73.61
65707;SHT31;52423;43.512;5.220;2023-07-29T06:17:34;22.68;72.79
65707;SHT31;52423;43.512;5.220;2023-07-29T06:20:00;22.77;72.76
65707;SHT31;52423;43.512;5.220;2023-07-29T06:22:25;22.86;72.81
65707;SHT31;52423;43.512;5.220;2023-07-29T06:24:50;22.93;71.60
65707;SHT31;52423;43.512;5.220;2023-07-29T06:27:16;23.05;72.13
65707;SHT31;52423;43.512;5.220;2023-07-29T06:29:41;23.13;71.73
65707;SHT31;52423;43.512;5.220;2023-07-29T06:32:07;23.26;70.34
65707;SHT31;52423;43.512;5.220;2023-07-29T06:34:32;23.27;70.91
65707;SHT31;52423;43.512;5.220;2023-07-29T06:36:57;23.28;69.79
65707;SHT31;52423;43.512;5.220;2023-07-29T06:39:23;23.30;69.65
65707;SHT31;52423;43.512;5.220;2023-07-29T06:41:48;23.31;69.42
65707;SHT31;52423;43.512;5.220;2023-07-29T06:44:14;23.44;69.86
65707;SHT31;52423;43.512;5.220;2023-07-29T06:46:39;23.67;68.78
65707;SHT31;52423;43.512;5.220;2023-07-29T06:49:05;23.63;68.88
65707;SHT31;52423;43.512;5.220;2023-07-29T06:51:30;23.65;68.67
65707;SHT31;52423;43.512;5.220;2023-07-29T06:53:59;23.84;67.35
65707;SHT31;52423;43.512;5.220;2023-07-29T06:56:24;23.85;68.07
65707;SHT31;52423;43.512;5.220;2023-07-29T06:58:50;23.88;66.83
65707;SHT31;52423;43.512;5.220;2023-07-29T07:01:15;23.92;67.68
65707;SHT31;52423;43.512;5.220;2023-07-29T07:03:41;24.08;66.38
65707;SHT31;52423;43.512;5.220;2023-07-29T07:06:06;24.09;66.25
65707;SHT31;52423;43.512;5.220;2023-07-29T07:08:31;24.09;65.10
65707;SHT31;52423;43.512;5.220;2023-07-29T07:10:57;24.05;65.57
65707;SHT31;52423;43.512;5.220;2023-07-29T07:13:22;24.18;64.14
65707;SHT31;52423;43.512;5.220;2023-07-29T07:15:48;24.12;66.50
65707;SHT31;52423;43.512;5.220;2023-07-29T07:18:13;24.18;65.07
65707;SHT31;52423;43.512;5.220;2023-07-29T07:20:38;24.21;64.95
65707;SHT31;52423;43.512;5.220;2023-07-29T07:23:04;24.32;64.99
65707;SHT31;52423;43.512;5.220;2023-07-29T07:25:31;24.66;65.74
65707;SHT31;52423;43.512;5.220;2023-07-29T07:27:56;24.76;64.02
65707;SHT31;52423;43.512;5.220;2023-07-29T07:30:22;25.03;62.33
65707;SHT31;52423;43.512;5.220;2023-07-29T07:32:47;25.28;61.70
65707;SHT31;52423;43.512;5.220;2023-07-29T07:35:13;25.25;61.38
65707;SHT31;52423;43.512;5.220;2023-07-29T07:37:38;25.25;61.72
65707;SHT31;52423;43.512;5.220;2023-07-29T07:40:04;25.23;62.78
65707;SHT31;52423;43.512;5.220;2023-07-29T07:42:29;25.30;65.16
65707;SHT31;52423;43.512;5.220;2023-07-29T07:44:55;25.31;65.35
65707;SHT31;52423;43.512;5.220;2023-07-29T07:47:20;25.41;63.47
65707;SHT31;52423;43.512;5.220;2023-07-29T07:49:46;25.52;64.24
65707;SHT31;52423;43.512;5.220;2023-07-29T07:52:11;25.52;65.18
65707;SHT31;52423;43.512;5.220;2023-07-29T07:54:36;25.59;63.41
65707;SHT31;52423;43.512;5.220;2023-07-29T07:57:02;25.61;61.75
65707;SHT31;52423;43.512;5.220;2023-07-29T07:59:27;25.76;63.29
65707;SHT31;52423;43.512;5.220;2023-07-29T08:01:53;26.03;61.38
65707;SHT31;52423;43.512;5.220;2023-07-29T08:04:18;26.20;60.68
65707;SHT31;52423;43.512;5.220;2023-07-29T08:06:43;26.36;59.73
65707;SHT31;52423;43.512;5.220;2023-07-29T08:09:09;26.67;58.84
65707;SHT31;52423;43.512;5.220;2023-07-29T08:11:34;26.64;58.97
65707;SHT31;52423;43.512;5.220;2023-07-29T08:14:00;26.71;59.11
65707;SHT31;52423;43.512;5.220;2023-07-29T08:16:25;26.91;59.41
65707;SHT31;52423;43.512;5.220;2023-07-29T08:18:50;26.84;60.00
65707;SHT31;52423;43.512;5.220;2023-07-29T08:21:16;26.85;63.77
65707;SHT31;52423;43.512;5.220;2023-07-29T08:23:41;26.91;64.61
65707;SHT31;52423;43.512;5.220;2023-07-29T08:26:06;27.04;64.16
65707;SHT31;52423;43.512;5.220;2023-07-29T08:28:36;27.23;65.16
65707;SHT31;52423;43.512;5.220;2023-07-29T08:31:02;27.33;64.89
65707;SHT31;52423;43.512;5.220;2023-07-29T08:33:28;27.12;65.27
65707;SHT31;52423;43.512;5.220;2023-07-29T08:35:53;27.22;65.33
65707;SHT31;52423;43.512;5.220;2023-07-29T08:38:20;27.19;66.22
65707;SHT31;52423;43.512;5.220;2023-07-29T08:43:44;27.42;66.00
65707;SHT31;52423;43.512;5.220;2023-07-29T08:46:14;27.49;65.23
65707;SHT31;52423;43.512;5.220;2023-07-29T08:48:42;27.56;64.41
65707;SHT31;52423;43.512;5.220;2023-07-29T08:51:09;27.49;63.88
65707;SHT31;52423;43.512;5.220;2023-07-29T08:53:35;27.50;65.12
65707;SHT31;52423;43.512;5.220;2023-07-29T08:56:01;27.54;64.33
65707;SHT31;52423;43.512;5.220;2023-07-29T08:58:27;27.69;62.71
65707;SHT31;52423;43.512;5.220;2023-07-29T09:00:52;27.79;61.87
65707;SHT31;52423;43.512;5.220;2023-07-29T09:03:19;27.70;61.87
65707;SHT31;52423;43.512;5.220;2023-07-29T09:05:45;27.49;62.85
65707;SHT31;52423;43.512;5.220;2023-07-29T09:08:11;27.79;61.89
65707;SHT31;52423;43.512;5.220;2023-07-29T09:10:37;27.83;62.12
65707;SHT31;52423;43.512;5.220;2023-07-29T09:13:03;27.83;62.84
65707;SHT31;52423;43.512;5.220;2023-07-29T09:15:31;27.79;63.62
65707;SHT31;52423;43.512;5.220;2023-07-29T09:17:58;27.86;64.41
65707;SHT31;52423;43.512;5.220;2023-07-29T09:20:27;27.93;64.11
65707;SHT31;52423;43.512;5.220;2023-07-29T09:22:58;27.79;65.41
65707;SHT31;52423;43.512;5.220;2023-07-29T09:25:25;27.94;65.59
65707;SHT31;52423;43.512;5.220;2023-07-29T09:27:51;28.14;64.88
65707;SHT31;52423;43.512;5.220;2023-07-29T09:30:17;28.28;64.43
65707;SHT31;52423;43.512;5.220;2023-07-29T09:32:43;28.17;65.69
65707;SHT31;52423;43.512;5.220;2023-07-29T09:35:12;28.04;66.06
65707;SHT31;52423;43.512;5.220;2023-07-29T09:37:38;28.13;66.15
65707;SHT31;52423;43.512;5.220;2023-07-29T09:40:05;28.01;65.53
65707;SHT31;52423;43.512;5.220;2023-07-29T09:42:31;27.98;66.17
65707;SHT31;52423;43.512;5.220;2023-07-29T09:44:57;28.08;65.90
65707;SHT31;52423;43.512;5.220;2023-07-29T09:47:25;28.37;65.55
65707;SHT31;52423;43.512;5.220;2023-07-29T09:49:51;28.32;65.57
65707;SHT31;52423;43.512;5.220;2023-07-29T09:52:18;28.28;65.58
65707;SHT31;52423;43.512;5.220;2023-07-29T09:54:45;28.18;66.69
65707;SHT31;52423;43.512;5.220;2023-07-29T09:57:13;28.17;66.51
65707;SHT31;52423;43.512;5.220;2023-07-29T09:59:38;28.21;66.42
65707;SHT31;52423;43.512;5.220;2023-07-29T10:02:04;28.41;66.94
65707;SHT31;52423;43.512;5.220;2023-07-29T10:04:31;28.29;66.09
65707;SHT31;52423;43.512;5.220;2023-07-29T10:06:57;28.42;66.30
65707;SHT31;52423;43.512;5.220;2023-07-29T10:09:24;28.34;66.66
65707;SHT31;52423;43.512;5.220;2023-07-29T10:11:50;28.35;67.11
65707;SHT31;52423;43.512;5.220;2023-07-29T10:14:16;28.27;67.23
65707;SHT31;52423;43.512;5.220;2023-07-29T10:16:42;28.52;67.34
65707;SHT31;52423;43.512;5.220;2023-07-29T10:19:10;28.49;67.13
65707;SHT31;52423;43.512;5.220;2023-07-29T10:21:38;28.52;67.00
65707;SHT31;52423;43.512;5.220;2023-07-29T10:24:06;28.73;66.90
65707;SHT31;52423;43.512;5.220;2023-07-29T10:26:34;28.82;66.83
65707;SHT31;52423;43.512;5.220;2023-07-29T10:29:04;28.65;66.65
65707;SHT31;52423;43.512;5.220;2023-07-29T10:31:30;28.54;66.92
65707;SHT31;52423;43.512;5.220;2023-07-29T10:33:56;28.76;67.53
65707;SHT31;52423;43.512;5.220;2023-07-29T10:36:22;28.35;68.18
65707;SHT31;52423;43.512;5.220;2023-07-29T10:38:48;28.40;67.50
65707;SHT31;52423;43.512;5.220;2023-07-29T10:41:14;28.37;67.13
65707;SHT31;52423;43.512;5.220;2023-07-29T10:43:40;28.71;65.21
65707;SHT31;52423;43.512;5.220;2023-07-29T10:46:22;28.96;65.05
65707;SHT31;52423;43.512;5.220;2023-07-29T10:48:52;28.75;65.77
65707;SHT31;52423;43.512;5.220;2023-07-29T10:54:16;28.85;65.14
65707;SHT31;52423;43.512;5.220;2023-07-29T10:56:46;28.82;65.24
65707;SHT31;52423;43.512;5.220;2023-07-29T11:01:40;28.68;66.50
65707;SHT31;52423;43.512;5.220;2023-07-29T11:12:47;27.98;69.02
65707;SHT31;52423;43.512;5.220;2023-07-29T11:15:26;28.11;69.24
65707;SHT31;52423;43.512;5.220;2023-07-29T11:20:26;27.82;69.42
65707;SHT31;52423;43.512;5.220;2023-07-29T11:22:53;28.13;69.45
65707;SHT31;52423;43.512;5.220;2023-07-29T11:25:23;28.32;68.10
65707;SHT31;52423;43.512;5.220;2023-07-29T11:27:53;28.38;68.99
65707;SHT31;52423;43.512;5.220;2023-07-29T11:30:18;27.93;70.81
65707;SHT31;52423;43.512;5.220;2023-07-29T11:32:45;27.77;71.55
65707;SHT31;52423;43.512;5.220;2023-07-29T11:35:16;27.91;71.81
65707;SHT31;52423;43.512;5.220;2023-07-29T11:37:45;27.73;71.30
65707;SHT31;52423;43.512;5.220;2023-07-29T11:40:14;27.74;71.76
65707;SHT31;52423;43.512;5.220;2023-07-29T11:42:40;27.79;71.67
65707;SHT31;52423;43.512;5.220;2023-07-29T11:45:06;27.43;73.31
65707;SHT31;52423;43.512;5.220;2023-07-29T11:47:32;27.56;73.25
65707;SHT31;52423;43.512;5.220;2023-07-29T11:50:03;27.62;72.58
65707;SHT31;52423;43.512;5.220;2023-07-29T11:52:31;27.59;73.08
65707;SHT31;52423;43.512;5.220;2023-07-29T11:54:57;27.91;72.10
65707;SHT31;52423;43.512;5.220;2023-07-29T11:57:23;27.86;71.89
65707;SHT31;52423;43.512;5.220;2023-07-29T11:59:49;27.73;71.88
65707;SHT31;52423;43.512;5.220;2023-07-29T12:02:16;27.70;72.00
65707;SHT31;52423;43.512;5.220;2023-07-29T12:04:44;27.77;70.48
65707;SHT31;52423;43.512;5.220;2023-07-29T12:07:10;27.87;68.81
65707;SHT31;52423;43.512;5.220;2023-07-29T12:09:36;28.11;70.25
65707;SHT31;52423;43.512;5.220;2023-07-29T12:12:03;27.76;71.34
65707;SHT31;52423;43.512;5.220;2023-07-29T12:14:29;27.62;72.07
65707;SHT31;52423;43.512;5.220;2023-07-29T12:16:54;27.50;72.96
65707;SHT31;52423;43.512;5.220;2023-07-29T12:19:20;27.60;72.99
65707;SHT31;52423;43.512;5.220;2023-07-29T12:21:47;27.97;72.06
65707;SHT31;52423;43.512;5.220;2023-07-29T12:24:13;28.13;70.97
65707;SHT31;52423;43.512;5.220;2023-07-29T12:26:40;27.79;72.74
65707;SHT31;52423;43.512;5.220;2023-07-29T12:29:17;28.15;70.03
65707;SHT31;52423;43.512;5.220;2023-07-29T12:31:44;28.13;70.90
65707;SHT31;52423;43.512;5.220;2023-07-29T12:34:17;28.20;71.13
65707;SHT31;52423;43.512;5.220;2023-07-29T12:36:48;28.20;71.12
65707;SHT31;52423;43.512;5.220;2023-07-29T12:41:47;28.45;70.07
65707;SHT31;52423;43.512;5.220;2023-07-29T12:44:13;28.66;68.48
65707;SHT31;52423;43.512;5.220;2023-07-29T12:46:39;28.73;68.21
65707;SHT31;52423;43.512;5.220;2023-07-29T12:49:04;28.68;66.92
65707;SHT31;52423;43.512;5.220;2023-07-29T12:51:30;28.89;68.23
65707;SHT31;52423;43.512;5.220;2023-07-29T12:53:55;28.99;67.05
65707;SHT31;52423;43.512;5.220;2023-07-29T12:56:21;28.72;67.78
65707;SHT31;52423;43.512;5.220;2023-07-29T12:58:46;28.72;68.15
65707;SHT31;52423;43.512;5.220;2023-07-29T13:01:12;28.83;68.48
65707;SHT31;52423;43.512;5.220;2023-07-29T13:03:47;29.03;67.85
65707;SHT31;52423;43.512;5.220;2023-07-29T13:06:12;28.69;68.80
65707;SHT31;52423;43.512;5.220;2023-07-29T13:08:38;28.66;69.47
65707;SHT31;52423;43.512;5.220;2023-07-29T13:11:04;28.69;67.83
65707;SHT31;52423;43.512;5.220;2023-07-29T13:13:30;28.80;68.23
65707;SHT31;52423;43.512;5.220;2023-07-29T13:15:57;28.71;69.26
65707;SHT31;52423;43.512;5.220;2023-07-29T13:18:22;28.79;66.60
65707;SHT31;52423;43.512;5.220;2023-07-29T13:20:48;28.73;68.22
65707;SHT31;52423;43.512;5.220;2023-07-29T13:23:14;28.73;68.28
65707;SHT31;52423;43.512;5.220;2023-07-29T13:25:39;28.88;67.12
65707;SHT31;52423;43.512;5.220;2023-07-29T13:28:04;29.07;65.52
65707;SHT31;52423;43.512;5.220;2023-07-29T13:30:30;28.85;65.54
65707;SHT31;52423;43.512;5.220;2023-07-29T13:32:56;29.07;65.65
65707;SHT31;52423;43.512;5.220;2023-07-29T13:35:21;29.10;65.80
65707;SHT31;52423;43.512;5.220;2023-07-29T13:37:47;28.98;66.47
65707;SHT31;52423;43.512;5.220;2023-07-29T13:40:12;29.03;66.73
65707;SHT31;52423;43.512;5.220;2023-07-29T13:42:38;29.07;67.23
65707;SHT31;52423;43.512;5.220;2023-07-29T13:45:04;29.12;66.30
65707;SHT31;52423;43.512;5.220;2023-07-29T13:47:29;29.00;65.94
65707;SHT31;52423;43.512;5.220;2023-07-29T13:49:54;28.98;66.37
65707;SHT31;52423;43.512;5.220;2023-07-29T13:52:20;28.88;65.88
65707;SHT31;52423;43.512;5.220;2023-07-29T13:54:45;28.62;66.36
65707;SHT31;52423;43.512;5.220;2023-07-29T13:57:11;28.69;67.48
65707;SHT31;52423;43.512;5.220;2023-07-29T13:59:36;28.82;66.65
65707;SHT31;52423;43.512;5.220;2023-07-29T14:02:05;28.73;67.72
65707;SHT31;52423;43.512;5.220;2023-07-29T14:04:32;28.86;68.02
65707;SHT31;52423;43.512;5.220;2023-07-29T14:06:57;28.86;66.93
65707;SHT31;52423;43.512;5.220;2023-07-29T14:09:23;28.51;68.63
65707;SHT31;52423;43.512;5.220;2023-07-29T14:11:48;28.56;68.26
65707;SHT31;52423;43.512;5.220;2023-07-29T14:14:14;28.31;69.07
65707;SHT31;52423;43.512;5.220;2023-07-29T14:16:40;28.45;68.55
65707;SHT31;52423;43.512;5.220;2023-07-29T14:19:05;28.27;69.90
65707;SHT31;52423;43.512;5.220;2023-07-29T14:21:31;28.32;67.51
65707;SHT31;52423;43.512;5.220;2023-07-29T14:23:56;28.07;69.10
65707;SHT31;52423;43.512;5.220;2023-07-29T14:26:22;27.97;67.91
65707;SHT31;52423;43.512;5.220;2023-07-29T14:28:47;28.00;68.58
65707;SHT31;52423;43.512;5.220;2023-07-29T14:31:14;27.93;70.41
65707;SHT31;52423;43.512;5.220;2023-07-29T14:33:39;28.07;69.93
65707;SHT31;52423;43.512;5.220;2023-07-29T14:36:05;28.13;69.37
65707;SHT31;52423;43.512;5.220;2023-07-29T14:38:32;28.00;70.58
65707;SHT31;52423;43.512;5.220;2023-07-29T14:40:58;27.79;70.91
65707;SHT31;52423;43.512;5.220;2023-07-29T14:43:23;27.83;70.54
65707;SHT31;52423;43.512;5.220;2023-07-29T14:45:50;27.45;71.66
65707;SHT31;52423;43.512;5.220;2023-07-29T14:48:15;27.62;71.13
65707;SHT31;52423;43.512;5.220;2023-07-29T14:50:41;27.79;69.23
65707;SHT31;52423;43.512;5.220;2023-07-29T14:53:09;27.79;69.65
65707;SHT31;52423;43.512;5.220;2023-07-29T14:55:34;27.87;69.73
65707;SHT31;52423;43.512;5.220;2023-07-29T14:57:59;27.91;69.54
65707;SHT31;52423;43.512;5.220;2023-07-29T15:00:25;28.01;70.20
65707;SHT31;52423;43.512;5.220;2023-07-29T15:02:50;27.97;70.40
65707;SHT31;52423;43.512;5.220;2023-07-29T15:05:16;27.76;70.26
65707;SHT31;52423;43.512;5.220;2023-07-29T15:07:41;27.84;70.12
65707;SHT31;52423;43.512;5.220;2023-07-29T15:10:07;27.93;70.48
65707;SHT31;52423;43.512;5.220;2023-07-29T15:12:33;27.84;70.33
65707;SHT31;52423;43.512;5.220;2023-07-29T15:14:58;27.77;70.55
65707;SHT31;52423;43.512;5.220;2023-07-29T15:17:23;27.86;69.50
65707;SHT31;52423;43.512;5.220;2023-07-29T15:19:49;27.71;70.03
65707;SHT31;52423;43.512;5.220;2023-07-29T15:22:16;27.69;69.93
65707;SHT31;52423;43.512;5.220;2023-07-29T15:24:41;27.80;69.59
65707;SHT31;52423;43.512;5.220;2023-07-29T15:27:09;27.62;69.52
65707;SHT31;52423;43.512;5.220;2023-07-29T15:29:34;27.76;68.99
65707;SHT31;52423;43.512;5.220;2023-07-29T15:32:00;27.94;69.26
65707;SHT31;52423;43.512;5.220;2023-07-29T15:34:25;27.98;68.96
65707;SHT31;52423;43.512;5.220;2023-07-29T15:36:51;27.86;68.69
65707;SHT31;52423;43.512;5.220;2023-07-29T15:39:16;28.00;67.13
65707;SHT31;52423;43.512;5.220;2023-07-29T15:41:42;27.91;68.64
65707;SHT31;52423;43.512;5.220;2023-07-29T15:44:07;27.87;68.70
65707;SHT31;52423;43.512;5.220;2023-07-29T15:46:33;28.00;68.67
65707;SHT31;52423;43.512;5.220;2023-07-29T15:48:58;28.01;68.81
65707;SHT31;52423;43.512;5.220;2023-07-29T15:51:27;27.91;68.80
65707;SHT31;52423;43.512;5.220;2023-07-29T15:53:52;27.87;69.39